sensor_id;sensor_type;location;lat;lon;timestamp;temperature;humidity
26691;DHT22;14307;51.718;8.938;2022-08-21T00:00:44;13.00;99.90
26691;DHT22;14307;51.718;8.938;2022-08-21T00:03:11;13.00;99.90
26691;DHT22;14307;51.718;8.938;2022-08-21T00:05:43;12.90;99.90
26691;DHT22;14307;51.718;8.938;2022-08-21T00:08:10;12.80;99.90
26691;DHT22;14307;51.718;8.938;2022-08-21T00:10:39;12.80;99.90
26691;DHT22;14307;51.718;8.938;2022-08-21T00:13:07;12.90;99.90
26691;DHT22;14307;51.718;8.938;2022-08-21T00:15:35;12.90;99.90
26691;DHT22;14307;51.718;8.938;2022-08-21T00:18:04;12.80;99.90
26691;DHT22;14307;51.718;8.938;2022-08-21T00:20:32;12.80;99.90
26691;DHT22;14307;51.718;8.938;2022-08-21T00:23:00;12.90;99.90
26691;DHT22;14307;51.718;8.938;2022-08-21T00:25:27;12.90;99.90
26691;DHT22;14307;51.718;8.938;2022-08-21T00:27:54;12.90;99.90
26691;DHT22;14307;51.718;8.938;2022-08-21T00:30:23;12.80;99.90
26691;DHT22;14307;51.718;8.938;2022-08-21T00:32:52;12.80;99.90
26691;DHT22;14307;51.718;8.938;2022-08-21T00:35:23;12.80;99.90
26691;DHT22;14307;51.718;8.938;2022-08-21T00:37:50;12.80;99.90
26691;DHT22;14307;51.718;8.938;2022-08-21T00:40:22;13.00;99.90
26691;DHT22;14307;51.718;8.938;2022-08-21T00:42:50;13.10;99.90
26691;DHT22;14307;51.718;8.938;2022-08-21T00:45:21;13.00;99.90
26691;DHT22;14307;51.718;8.938;2022-08-21T00:47:48;13.00;99.90
26691;DHT22;14307;51.718;8.938;2022-08-21T00:50:15;13.00;99.90
26691;DHT22;14307;51.718;8.938;2022-08-21T00:52:48;12.90;99.90
26691;DHT22;14307;51.718;8.938;2022-08-21T00:55:16;12.80;99.90
26691;DHT22;14307;51.718;8.938;2022-08-21T00:57:48;12.80;99.90
26691;DHT22;14307;51.718;8.938;2022-08-21T01:00:21;12.70;99.90
26691;DHT22;14307;51.718;8.938;2022-08-21T01:02:48;12.60;99.90
26691;DHT22;14307;51.718;8.938;2022-08-21T01:05:15;12.50;99.90
26691;DHT22;14307;51.718;8.938;2022-08-21T01:07:43;12.40;99.90
26691;DHT22;14307;51.718;8.938;2022-08-21T01:10:11;12.40;99.90
26691;DHT22;14307;51.718;8.938;2022-08-21T01:12:52;12.40;99.90
26691;DHT22;14307;51.718;8.938;2022-08-21T01:15:19;12.50;99.90
26691;DHT22;14307;51.718;8.938;2022-08-21T01:17:49;12.60;99.90
26691;DHT22;14307;51.718;8.938;2022-08-21T01:20:16;12.60;99.90
26691;DHT22;14307;51.718;8.938;2022-08-21T01:22:43;12.50;99.90
26691;DHT22;14307;51.718;8.938;2022-08-21T01:25:12;12.40;99.90
26691;DHT22;14307;51.718;8.938;2022-08-21T01:27:39;12.40;99.90
26691;DHT22;14307;51.718;8.938;2022-08-21T01:30:21;12.30;99.90
26691;DHT22;14307;51.718;8.938;2022-08-21T01:32:49;12.30;99.90
26691;DHT22;14307;51.718;8.938;2022-08-21T01:35:18;12.30;99.90
26691;DHT22;14307;51.718;8.938;2022-08-21T01:37:47;12.20;99.90
26691;DHT22;14307;51.718;8.938;2022-08-21T01:40:16;12.20;99.90
26691;DHT22;14307;51.718;8.938;2022-08-21T01:42:45;12.10;99.90
26691;DHT22;14307;51.718;8.938;2022-08-21T01:45:13;12.00;99.90
26691;DHT22;14307;51.718;8.938;2022-08-21T01:47:40;12.10;99.90
26691;DHT22;14307;51.718;8.938;2022-08-21T01:50:11;12.20;99.90
26691;DHT22;14307;51.718;8.938;2022-08-21T01:52:39;12.10;99.90
26691;DHT22;14307;51.718;8.938;2022-08-21T01:55:07;12.30;99.90
26691;DHT22;14307;51.718;8.938;2022-08-21T01:57:34;12.40;99.90
26691;DHT22;14307;51.718;8.938;2022-08-21T02:00:04;12.30;99.90
26691;DHT22;14307;51.718;8.938;2022-08-21T02:02:38;12.10;99.90
26691;DHT22;14307;51.718;8.938;2022-08-21T02:05:06;12.00;99.90
26691;DHT22;14307;51.718;8.938;2022-08-21T02:07:44;12.00;99.90
26691;DHT22;14307;51.718;8.938;2022-08-21T02:10:20;11.90;99.90
26691;DHT22;14307;51.718;8.938;2022-08-21T02:12:47;11.90;99.90
26691;DHT22;14307;51.718;8.938;2022-08-21T02:15:15;11.90;99.90
26691;DHT22;14307;51.718;8.938;2022-08-21T02:17:54;12.10;99.90
26691;DHT22;14307;51.718;8.938;2022-08-21T02:20:26;12.10;99.90
26691;DHT22;14307;51.718;8.938;2022-08-21T02:22:53;12.10;99.90
26691;DHT22;14307;51.718;8.938;2022-08-21T02:25:21;12.00;99.90
26691;DHT22;14307;51.718;8.938;2022-08-21T02:27:48;12.00;99.90
26691;DHT22;14307;51.718;8.938;2022-08-21T02:30:37;11.90;99.90
26691;DHT22;14307;51.718;8.938;2022-08-21T02:33:05;12.00;99.90
26691;DHT22;14307;51.718;8.938;2022-08-21T02:35:32;11.90;99.90
26691;DHT22;14307;51.718;8.938;2022-08-21T02:38:03;11.90;99.90
26691;DHT22;14307;51.718;8.938;2022-08-21T02:40:33;11.80;99.90
26691;DHT22;14307;51.718;8.938;2022-08-21T02:43:02;11.90;99.90
26691;DHT22;14307;51.718;8.938;2022-08-21T02:45:29;11.80;99.90
26691;DHT22;14307;51.718;8.938;2022-08-21T02:48:00;11.70;99.90
26691;DHT22;14307;51.718;8.938;2022-08-21T02:50:38;11.70;99.90
26691;DHT22;14307;51.718;8.938;2022-08-21T02:53:07;11.70;99.90
26691;DHT22;14307;51.718;8.938;2022-08-21T02:55:36;11.70;99.90
26691;DHT22;14307;51.718;8.938;2022-08-21T02:58:05;11.60;99.90
26691;DHT22;14307;51.718;8.938;2022-08-21T03:00:34;11.60;99.90
26691;DHT22;14307;51.718;8.938;2022-08-21T03:03:04;11.60;99.90
26691;DHT22;14307;51.718;8.938;2022-08-21T03:05:33;11.80;99.90
26691;DHT22;14307;51.718;8.938;2022-08-21T03:08:02;11.70;99.90
26691;DHT22;14307;51.718;8.938;2022-08-21T03:10:29;11.70;99.90
26691;DHT22;14307;51.718;8.938;2022-08-21T03:12:57;11.70;99.90
26691;DHT22;14307;51.718;8.938;2022-08-21T03:15:24;11.80;99.90
26691;DHT22;14307;51.718;8.938;2022-08-21T03:17:52;11.70;99.90
26691;DHT22;14307;51.718;8.938;2022-08-21T03:20:21;11.70;99.90
26691;DHT22;14307;51.718;8.938;2022-08-21T03:22:51;11.70;99.90
26691;DHT22;14307;51.718;8.938;2022-08-21T03:25:25;11.60;99.90
26691;DHT22;14307;51.718;8.938;2022-08-21T03:28:09;11.70;99.90
26691;DHT22;14307;51.718;8.938;2022-08-21T03:30:44;11.70;99.90
26691;DHT22;14307;51.718;8.938;2022-08-21T03:33:11;11.80;99.90
26691;DHT22;14307;51.718;8.938;2022-08-21T03:35:42;11.90;99.90
26691;DHT22;14307;51.718;8.938;2022-08-21T03:38:09;11.80;99.90
26691;DHT22;14307;51.718;8.938;2022-08-21T03:40:36;11.80;99.90
26691;DHT22;14307;51.718;8.938;2022-08-21T03:43:03;11.90;99.90
26691;DHT22;14307;51.718;8.938;2022-08-21T03:45:30;11.80;99.90
26691;DHT22;14307;51.718;8.938;2022-08-21T03:48:01;11.70;99.90
26691;DHT22;14307;51.718;8.938;2022-08-21T03:50:33;11.80;99.90
26691;DHT22;14307;51.718;8.938;2022-08-21T03:53:08;11.70;99.90
26691;DHT22;14307;51.718;8.938;2022-08-21T03:55:47;11.80;99.90
26691;DHT22;14307;51.718;8.938;2022-08-21T03:58:16;11.70;99.90
26691;DHT22;14307;51.718;8.938;2022-08-21T04:00:48;11.60;99.90
26691;DHT22;14307;51.718;8.938;2022-08-21T04:03:16;11.70;99.90
26691;DHT22;14307;51.718;8.938;2022-08-21T04:05:43;11.60;99.90
26691;DHT22;14307;51.718;8.938;2022-08-21T04:08:12;11.60;99.90
26691;DHT22;14307;51.718;8.938;2022-08-21T04:10:40;11.60;99.90
26691;DHT22;14307;51.718;8.938;2022-08-21T04:13:08;11.60;99.90
26691;DHT22;14307;51.718;8.938;2022-08-21T04:15:35;11.70;99.90
26691;DHT22;14307;51.718;8.938;2022-08-21T04:18:03;11.70;99.90
26691;DHT22;14307;51.718;8.938;2022-08-21T04:20:30;11.80;99.90
26691;DHT22;14307;51.718;8.938;2022-08-21T04:22:57;11.80;99.90
26691;DHT22;14307;51.718;8.938;2022-08-21T04:25:24;12.00;99.90
26691;DHT22;14307;51.718;8.938;2022-08-21T04:27:52;12.00;99.90
26691;DHT22;14307;51.718;8.938;2022-08-21T04:30:19;12.10;99.90
26691;DHT22;14307;51.718;8.938;2022-08-21T04:32:54;12.20;99.90
26691;DHT22;14307;51.718;8.938;2022-08-21T04:35:23;12.10;99.90
26691;DHT22;14307;51.718;8.938;2022-08-21T04:37:50;12.30;99.90
26691;DHT22;14307;51.718;8.938;2022-08-21T04:40:19;12.20;99.90
26691;DHT22;14307;51.718;8.938;2022-08-21T04:42:49;12.20;99.90
26691;DHT22;14307;51.718;8.938;2022-08-21T04:45:43;12.20;99.90
26691;DHT22;14307;51.718;8.938;2022-08-21T04:48:13;12.20;99.90
26691;DHT22;14307;51.718;8.938;2022-08-21T04:50:50;12.30;99.90
26691;DHT22;14307;51.718;8.938;2022-08-21T04:53:26;12.30;99.90
26691;DHT22;14307;51.718;8.938;2022-08-21T04:55:59;12.30;99.90
26691;DHT22;14307;51.718;8.938;2022-08-21T04:58:27;12.30;99.90
26691;DHT22;14307;51.718;8.938;2022-08-21T05:00:56;12.40;99.90
26691;DHT22;14307;51.718;8.938;2022-08-21T05:03:24;12.60;99.90
26691;DHT22;14307;51.718;8.938;2022-08-21T05:05:51;12.50;99.90
26691;DHT22;14307;51.718;8.938;2022-08-21T05:08:21;12.70;99.90
26691;DHT22;14307;51.718;8.938;2022-08-21T05:10:50;12.80;99.90
26691;DHT22;14307;51.718;8.938;2022-08-21T05:13:17;12.90;99.90
26691;DHT22;14307;51.718;8.938;2022-08-21T05:15:44;12.90;99.90
26691;DHT22;14307;51.718;8.938;2022-08-21T05:18:10;13.10;99.90
26691;DHT22;14307;51.718;8.938;2022-08-21T05:20:37;13.00;99.90
26691;DHT22;14307;51.718;8.938;2022-08-21T05:23:12;13.00;99.90
26691;DHT22;14307;51.718;8.938;2022-08-21T05:25:40;13.10;99.90
26691;DHT22;14307;51.718;8.938;2022-08-21T05:28:07;13.20;99.90
26691;DHT22;14307;51.718;8.938;2022-08-21T05:30:35;13.30;99.90
26691;DHT22;14307;51.718;8.938;2022-08-21T05:33:03;13.30;99.90
26691;DHT22;14307;51.718;8.938;2022-08-21T05:35:31;13.40;99.90
26691;DHT22;14307;51.718;8.938;2022-08-21T05:37:59;13.40;99.90
26691;DHT22;14307;51.718;8.938;2022-08-21T05:40:26;13.50;99.90
26691;DHT22;14307;51.718;8.938;2022-08-21T05:42:54;13.50;99.90
26691;DHT22;14307;51.718;8.938;2022-08-21T05:45:23;13.70;99.90
26691;DHT22;14307;51.718;8.938;2022-08-21T05:48:08;13.90;99.90
26691;DHT22;14307;51.718;8.938;2022-08-21T05:50:35;13.90;99.90
26691;DHT22;14307;51.718;8.938;2022-08-21T05:53:05;14.00;99.90
26691;DHT22;14307;51.718;8.938;2022-08-21T05:55:33;14.10;99.90
26691;DHT22;14307;51.718;8.938;2022-08-21T05:58:00;14.10;99.90
26691;DHT22;14307;51.718;8.938;2022-08-21T06:00:27;14.20;99.90
26691;DHT22;14307;51.718;8.938;2022-08-21T06:02:53;14.30;99.90
26691;DHT22;14307;51.718;8.938;2022-08-21T06:05:20;14.30;99.90
26691;DHT22;14307;51.718;8.938;2022-08-21T06:08:03;14.30;99.90
26691;DHT22;14307;51.718;8.938;2022-08-21T06:10:30;14.30;99.90
26691;DHT22;14307;51.718;8.938;2022-08-21T06:12:57;14.40;99.90
26691;DHT22;14307;51.718;8.938;2022-08-21T06:15:24;14.50;99.90
26691;DHT22;14307;51.718;8.938;2022-08-21T06:17:53;14.50;99.90
26691;DHT22;14307;51.718;8.938;2022-08-21T06:20:20;14.50;99.90
26691;DHT22;14307;51.718;8.938;2022-08-21T06:22:47;14.50;99.90
26691;DHT22;14307;51.718;8.938;2022-08-21T06:25:13;14.70;99.90
26691;DHT22;14307;51.718;8.938;2022-08-21T06:27:40;14.80;99.90
26691;DHT22;14307;51.718;8.938;2022-08-21T06:30:07;14.90;99.90
26691;DHT22;14307;51.718;8.938;2022-08-21T06:32:35;15.00;99.90
26691;DHT22;14307;51.718;8.938;2022-08-21T06:35:03;15.10;99.90
26691;DHT22;14307;51.718;8.938;2022-08-21T06:37:30;15.20;99.90
26691;DHT22;14307;51.718;8.938;2022-08-21T06:39:57;15.30;99.90
26691;DHT22;14307;51.718;8.938;2022-08-21T06:42:25;15.50;99.90
26691;DHT22;14307;51.718;8.938;2022-08-21T06:44:54;16.00;99.90
26691;DHT22;14307;51.718;8.938;2022-08-21T06:47:23;16.40;99.90
26691;DHT22;14307;51.718;8.938;2022-08-21T06:49:49;16.80;99.90
26691;DHT22;14307;51.718;8.938;2022-08-21T06:52:16;17.40;99.90
26691;DHT22;14307;51.718;8.938;2022-08-21T06:54:43;17.80;99.90
26691;DHT22;14307;51.718;8.938;2022-08-21T06:57:10;18.20;99.90
26691;DHT22;14307;51.718;8.938;2022-08-21T06:59:36;18.40;99.90
26691;DHT22;14307;51.718;8.938;2022-08-21T07:02:03;18.80;99.90
26691;DHT22;14307;51.718;8.938;2022-08-21T07:04:30;19.20;99.90
26691;DHT22;14307;51.718;8.938;2022-08-21T07:06:57;19.40;99.90
26691;DHT22;14307;51.718;8.938;2022-08-21T07:09:24;19.50;99.90
26691;DHT22;14307;51.718;8.938;2022-08-21T07:11:53;19.80;99.90
26691;DHT22;14307;51.718;8.938;2022-08-21T07:14:20;19.90;99.90
26691;DHT22;14307;51.718;8.938;2022-08-21T07:16:48;20.10;99.90
26691;DHT22;14307;51.718;8.938;2022-08-21T07:19:15;20.00;99.90
26691;DHT22;14307;51.718;8.938;2022-08-21T07:21:42;20.20;99.90
26691;DHT22;14307;51.718;8.938;2022-08-21T07:24:09;20.30;99.90
26691;DHT22;14307;51.718;8.938;2022-08-21T07:26:36;20.60;99.90
26691;DHT22;14307;51.718;8.938;2022-08-21T07:29:03;20.90;99.90
26691;DHT22;14307;51.718;8.938;2022-08-21T07:31:31;21.10;99.90
26691;DHT22;14307;51.718;8.938;2022-08-21T07:33:58;21.40;99.90
26691;DHT22;14307;51.718;8.938;2022-08-21T07:36:24;21.60;99.90
26691;DHT22;14307;51.718;8.938;2022-08-21T07:38:51;21.80;99.90
26691;DHT22;14307;51.718;8.938;2022-08-21T07:41:22;21.80;99.90
26691;DHT22;14307;51.718;8.938;2022-08-21T07:43:49;22.20;99.90
26691;DHT22;14307;51.718;8.938;2022-08-21T07:46:19;22.30;99.90
26691;DHT22;14307;51.718;8.938;2022-08-21T07:48:46;22.40;99.90
26691;DHT22;14307;51.718;8.938;2022-08-21T07:51:15;22.40;99.90
26691;DHT22;14307;51.718;8.938;2022-08-21T07:53:48;22.70;99.90
26691;DHT22;14307;51.718;8.938;2022-08-21T07:56:15;22.80;99.90
26691;DHT22;14307;51.718;8.938;2022-08-21T07:58:41;22.90;99.90
26691;DHT22;14307;51.718;8.938;2022-08-21T08:01:08;22.80;99.90
26691;DHT22;14307;51.718;8.938;2022-08-21T08:03:35;22.90;99.90
26691;DHT22;14307;51.718;8.938;2022-08-21T08:06:02;23.00;99.90
26691;DHT22;14307;51.718;8.938;2022-08-21T08:08:31;22.90;99.90
26691;DHT22;14307;51.718;8.938;2022-08-21T08:10:58;22.90;99.90
26691;DHT22;14307;51.718;8.938;2022-08-21T08:13:26;23.00;99.90
26691;DHT22;14307;51.718;8.938;2022-08-21T08:15:53;23.50;99.90
26691;DHT22;14307;51.718;8.938;2022-08-21T08:18:20;23.30;99.90
26691;DHT22;14307;51.718;8.938;2022-08-21T08:20:46;23.30;99.90
26691;DHT22;14307;51.718;8.938;2022-08-21T08:23:14;23.50;99.90
26691;DHT22;14307;51.718;8.938;2022-08-21T08:25:41;23.50;99.90
26691;DHT22;14307;51.718;8.938;2022-08-21T08:28:08;23.60;99.90
26691;DHT22;14307;51.718;8.938;2022-08-21T08:30:44;23.70;99.90
26691;DHT22;14307;51.718;8.938;2022-08-21T08:33:10;23.80;99.90
26691;DHT22;14307;51.718;8.938;2022-08-21T08:35:37;23.90;99.90
26691;DHT22;14307;51.718;8.938;2022-08-21T08:38:05;23.90;99.90
26691;DHT22;14307;51.718;8.938;2022-08-21T08:41:16;23.80;99.90
26691;DHT22;14307;51.718;8.938;2022-08-21T08:43:22;23.80;99.90
26691;DHT22;14307;51.718;8.938;2022-08-21T08:45:51;23.90;99.90
26691;DHT22;14307;51.718;8.938;2022-08-21T08:48:40;23.60;99.90
26691;DHT22;14307;51.718;8.938;2022-08-21T08:51:27;23.60;99.90
26691;DHT22;14307;51.718;8.938;2022-08-21T08:53:59;23.90;99.90
26691;DHT22;14307;51.718;8.938;2022-08-21T08:56:32;24.10;99.90
26691;DHT22;14307;51.718;8.938;2022-08-21T08:59:24;24.20;99.90
26691;DHT22;14307;51.718;8.938;2022-08-21T09:01:48;24.40;99.90
26691;DHT22;14307;51.718;8.938;2022-08-21T09:04:24;24.40;99.90
26691;DHT22;14307;51.718;8.938;2022-08-21T09:12:38;24.30;99.90
26691;DHT22;14307;51.718;8.938;2022-08-21T09:20:41;24.50;99.90
26691;DHT22;14307;51.718;8.938;2022-08-21T09:23:25;24.60;99.90
26691;DHT22;14307;51.718;8.938;2022-08-21T09:26:07;24.70;99.90
26691;DHT22;14307;51.718;8.938;2022-08-21T09:28:37;24.40;99.90
26691;DHT22;14307;51.718;8.938;2022-08-21T09:31:14;24.20;99.90
26691;DHT22;14307;51.718;8.938;2022-08-21T09:33:42;24.20;99.90
26691;DHT22;14307;51.718;8.938;2022-08-21T09:36:10;24.50;99.90
26691;DHT22;14307;51.718;8.938;2022-08-21T09:38:37;24.70;99.90
26691;DHT22;14307;51.718;8.938;2022-08-21T09:41:07;24.40;99.90
26691;DHT22;14307;51.718;8.938;2022-08-21T09:43:36;24.80;99.90
26691;DHT22;14307;51.718;8.938;2022-08-21T09:46:12;25.00;99.90
26691;DHT22;14307;51.718;8.938;2022-08-21T09:48:49;25.30;99.90
26691;DHT22;14307;51.718;8.938;2022-08-21T09:51:26;25.30;99.90
26691;DHT22;14307;51.718;8.938;2022-08-21T09:53:58;25.40;99.90
26691;DHT22;14307;51.718;8.938;2022-08-21T09:59:43;25.50;99.90
26691;DHT22;14307;51.718;8.938;2022-08-21T10:02:29;25.60;99.90
26691;DHT22;14307;51.718;8.938;2022-08-21T10:05:07;25.40;99.90
26691;DHT22;14307;51.718;8.938;2022-08-21T10:07:37;25.30;99.90
26691;DHT22;14307;51.718;8.938;2022-08-21T10:10:23;25.20;99.90
26691;DHT22;14307;51.718;8.938;2022-08-21T10:13:12;25.00;99.90
26691;DHT22;14307;51.718;8.938;2022-08-21T10:18:14;25.30;99.90
26691;DHT22;14307;51.718;8.938;2022-08-21T10:21:01;25.50;99.90
26691;DHT22;14307;51.718;8.938;2022-08-21T10:23:45;25.40;99.90
26691;DHT22;14307;51.718;8.938;2022-08-21T10:29:09;25.30;99.90
26691;DHT22;14307;51.718;8.938;2022-08-21T10:34:37;25.40;99.90
26691;DHT22;14307;51.718;8.938;2022-08-21T10:50:57;25.20;99.90
26691;DHT22;14307;51.718;8.938;2022-08-21T10:53:32;25.40;99.90
26691;DHT22;14307;51.718;8.938;2022-08-21T10:56:18;25.70;99.90
26691;DHT22;14307;51.718;8.938;2022-08-21T10:59:07;26.00;99.90
26691;DHT22;14307;51.718;8.938;2022-08-21T11:04:22;25.80;99.90
26691;DHT22;14307;51.718;8.938;2022-08-21T11:07:02;26.00;99.90
26691;DHT22;14307;51.718;8.938;2022-08-21T11:09:45;26.20;99.90
26691;DHT22;14307;51.718;8.938;2022-08-21T11:12:35;26.10;99.90
26691;DHT22;14307;51.718;8.938;2022-08-21T11:15:18;26.30;99.90
26691;DHT22;14307;51.718;8.938;2022-08-21T11:18:15;25.90;99.90
26691;DHT22;14307;51.718;8.938;2022-08-21T11:23:53;25.70;99.90
26691;DHT22;14307;51.718;8.938;2022-08-21T11:29:06;26.40;99.90
26691;DHT22;14307;51.718;8.938;2022-08-21T11:31:44;26.20;99.90
26691;DHT22;14307;51.718;8.938;2022-08-21T11:45:37;25.80;99.90
26691;DHT22;14307;51.718;8.938;2022-08-21T11:50:45;25.80;99.90
26691;DHT22;14307;51.718;8.938;2022-08-21T11:53:25;26.00;99.90
26691;DHT22;14307;51.718;8.938;2022-08-21T11:56:03;25.80;99.90
26691;DHT22;14307;51.718;8.938;2022-08-21T11:58:46;25.90;99.90
26691;DHT22;14307;51.718;8.938;2022-08-21T12:01:18;26.00;99.90
26691;DHT22;14307;51.718;8.938;2022-08-21T12:04:10;25.90;99.90
26691;DHT22;14307;51.718;8.938;2022-08-21T12:06:44;25.70;99.90
26691;DHT22;14307;51.718;8.938;2022-08-21T12:09:33;25.50;99.90
26691;DHT22;14307;51.718;8.938;2022-08-21T12:12:02;25.50;99.90
26691;DHT22;14307;51.718;8.938;2022-08-21T12:14:45;25.80;99.90
26691;DHT22;14307;51.718;8.938;2022-08-21T12:17:23;26.00;99.90
26691;DHT22;14307;51.718;8.938;2022-08-21T12:20:15;26.00;99.90
26691;DHT22;14307;51.718;8.938;2022-08-21T12:22:54;26.00;99.90
26691;DHT22;14307;51.718;8.938;2022-08-21T12:25:43;25.60;99.90
26691;DHT22;14307;51.718;8.938;2022-08-21T12:28:21;25.60;99.90
26691;DHT22;14307;51.718;8.938;2022-08-21T12:30:49;25.90;99.90
26691;DHT22;14307;51.718;8.938;2022-08-21T12:33:30;25.80;99.90
26691;DHT22;14307;51.718;8.938;2022-08-21T12:38:42;26.00;99.90
26691;DHT22;14307;51.718;8.938;2022-08-21T12:41:21;26.30;99.90
26691;DHT22;14307;51.718;8.938;2022-08-21T12:43:59;26.60;99.90
26691;DHT22;14307;51.718;8.938;2022-08-21T12:46:42;26.70;99.90
26691;DHT22;14307;51.718;8.938;2022-08-21T12:49:18;26.30;99.90
26691;DHT22;14307;51.718;8.938;2022-08-21T12:52:14;25.90;99.90
26691;DHT22;14307;51.718;8.938;2022-08-21T12:54:44;26.00;99.90
26691;DHT22;14307;51.718;8.938;2022-08-21T12:57:21;25.90;99.90
26691;DHT22;14307;51.718;8.938;2022-08-21T12:59:55;25.80;99.90
26691;DHT22;14307;51.718;8.938;2022-08-21T13:02:46;25.50;99.90
26691;DHT22;14307;51.718;8.938;2022-08-21T13:05:19;25.60;99.90
26691;DHT22;14307;51.718;8.938;2022-08-21T13:07:49;25.40;99.90
26691;DHT22;14307;51.718;8.938;2022-08-21T13:10:22;25.40;99.90
26691;DHT22;14307;51.718;8.938;2022-08-21T13:12:53;25.70;99.90
26691;DHT22;14307;51.718;8.938;2022-08-21T13:15:30;25.90;99.90
26691;DHT22;14307;51.718;8.938;2022-08-21T13:18:01;26.30;99.90
26691;DHT22;14307;51.718;8.938;2022-08-21T13:20:32;26.50;99.90
26691;DHT22;14307;51.718;8.938;2022-08-21T13:23:02;26.30;99.90
26691;DHT22;14307;51.718;8.938;2022-08-21T13:25:35;26.40;99.90
26691;DHT22;14307;51.718;8.938;2022-08-21T13:28:11;26.70;99.90
26691;DHT22;14307;51.718;8.938;2022-08-21T13:30:59;26.70;99.90
26691;DHT22;14307;51.718;8.938;2022-08-21T13:33:30;26.90;99.90
26691;DHT22;14307;51.718;8.938;2022-08-21T13:38:33;26.60;99.90
26691;DHT22;14307;51.718;8.938;2022-08-21T13:41:25;26.30;99.90
26691;DHT22;14307;51.718;8.938;2022-08-21T13:44:01;26.60;99.90
26691;DHT22;14307;51.718;8.938;2022-08-21T13:46:31;27.00;99.90
26691;DHT22;14307;51.718;8.938;2022-08-21T13:49:03;27.30;99.90
26691;DHT22;14307;51.718;8.938;2022-08-21T13:51:31;27.10;99.90
26691;DHT22;14307;51.718;8.938;2022-08-21T13:53:59;26.60;99.90
26691;DHT22;14307;51.718;8.938;2022-08-21T13:56:27;26.20;99.90
26691;DHT22;14307;51.718;8.938;2022-08-21T13:58:55;25.70;99.90
26691;DHT22;14307;51.718;8.938;2022-08-21T14:03:51;25.80;99.90
26691;DHT22;14307;51.718;8.938;2022-08-21T14:06:21;26.10;99.90
26691;DHT22;14307;51.718;8.938;2022-08-21T14:08:58;26.40;99.90
26691;DHT22;14307;51.718;8.938;2022-08-21T14:11:32;26.60;99.90
26691;DHT22;14307;51.718;8.938;2022-08-21T14:14:02;26.50;99.90
26691;DHT22;14307;51.718;8.938;2022-08-21T14:16:53;26.00;99.90
26691;DHT22;14307;51.718;8.938;2022-08-21T14:19:23;25.80;99.90
26691;DHT22;14307;51.718;8.938;2022-08-21T14:21:50;25.90;99.90
26691;DHT22;14307;51.718;8.938;2022-08-21T14:27:06;25.80;99.90
26691;DHT22;14307;51.718;8.938;2022-08-21T14:29:38;26.00;99.90
26691;DHT22;14307;51.718;8.938;2022-08-21T14:32:19;26.10;99.90
26691;DHT22;14307;51.718;8.938;2022-08-21T14:34:51;25.90;99.90
26691;DHT22;14307;51.718;8.938;2022-08-21T14:37:20;25.80;99.90
26691;DHT22;14307;51.718;8.938;2022-08-21T14:39:47;25.80;99.90
26691;DHT22;14307;51.718;8.938;2022-08-21T14:42:14;25.80;99.90
26691;DHT22;14307;51.718;8.938;2022-08-21T14:44:41;25.80;99.90
26691;DHT22;14307;51.718;8.938;2022-08-21T14:47:08;25.80;99.90
26691;DHT22;14307;51.718;8.938;2022-08-21T14:49:35;25.90;99.90
26691;DHT22;14307;51.718;8.938;2022-08-21T14:52:03;26.10;99.90
26691;DHT22;14307;51.718;8.938;2022-08-21T14:54:31;26.30;99.90
26691;DHT22;14307;51.718;8.938;2022-08-21T14:57:04;26.20;99.90
26691;DHT22;14307;51.718;8.938;2022-08-21T14:59:31;26.10;99.90
26691;DHT22;14307;51.718;8.938;2022-08-21T15:01:59;26.00;99.90
26691;DHT22;14307;51.718;8.938;2022-08-21T15:04:26;25.90;99.90
26691;DHT22;14307;51.718;8.938;2022-08-21T15:06:53;26.10;99.90
26691;DHT22;14307;51.718;8.938;2022-08-21T15:09:20;26.10;99.90
26691;DHT22;14307;51.718;8.938;2022-08-21T15:11:47;26.20;99.90
26691;DHT22;14307;51.718;8.938;2022-08-21T15:14:26;26.20;99.90
26691;DHT22;14307;51.718;8.938;2022-08-21T15:16:53;26.30;99.90
26691;DHT22;14307;51.718;8.938;2022-08-21T15:19:21;26.30;99.90
26691;DHT22;14307;51.718;8.938;2022-08-21T15:21:47;26.20;99.90
26691;DHT22;14307;51.718;8.938;2022-08-21T15:24:15;26.20;99.90
26691;DHT22;14307;51.718;8.938;2022-08-21T15:26:44;25.90;99.90
26691;DHT22;14307;51.718;8.938;2022-08-21T15:29:11;25.70;99.90
26691;DHT22;14307;51.718;8.938;2022-08-21T15:31:50;25.70;99.90
26691;DHT22;14307;51.718;8.938;2022-08-21T15:34:17;25.80;99.90
26691;DHT22;14307;51.718;8.938;2022-08-21T15:36:43;25.80;99.90
26691;DHT22;14307;51.718;8.938;2022-08-21T15:39:10;25.60;99.90
26691;DHT22;14307;51.718;8.938;2022-08-21T15:41:37;25.50;99.90
26691;DHT22;14307;51.718;8.938;2022-08-21T15:44:04;25.40;99.90
26691;DHT22;14307;51.718;8.938;2022-08-21T15:46:31;25.30;99.90
26691;DHT22;14307;51.718;8.938;2022-08-21T15:48:57;25.40;99.90
26691;DHT22;14307;51.718;8.938;2022-08-21T15:51:25;24.90;99.90
26691;DHT22;14307;51.718;8.938;2022-08-21T15:53:52;24.60;99.90
26691;DHT22;14307;51.718;8.938;2022-08-21T15:56:25;24.40;99.90
26691;DHT22;14307;51.718;8.938;2022-08-21T15:58:57;24.40;99.90
26691;DHT22;14307;51.718;8.938;2022-08-21T16:01:25;24.50;99.90
26691;DHT22;14307;51.718;8.938;2022-08-21T16:03:53;24.50;99.90
26691;DHT22;14307;51.718;8.938;2022-08-21T16:06:20;24.40;99.90
26691;DHT22;14307;51.718;8.938;2022-08-21T16:09:07;24.20;99.90
26691;DHT22;14307;51.718;8.938;2022-08-21T16:11:34;24.30;99.90
26691;DHT22;14307;51.718;8.938;2022-08-21T16:14:01;24.20;99.90
26691;DHT22;14307;51.718;8.938;2022-08-21T16:16:28;24.10;99.90
26691;DHT22;14307;51.718;8.938;2022-08-21T16:18:57;24.00;99.90
26691;DHT22;14307;51.718;8.938;2022-08-21T16:21:24;23.90;99.90
26691;DHT22;14307;51.718;8.938;2022-08-21T16:23:51;23.80;99.90
26691;DHT22;14307;51.718;8.938;2022-08-21T16:26:17;23.80;99.90
26691;DHT22;14307;51.718;8.938;2022-08-21T16:28:47;23.90;99.90
26691;DHT22;14307;51.718;8.938;2022-08-21T16:31:15;24.10;99.90
26691;DHT22;14307;51.718;8.938;2022-08-21T16:33:45;24.00;99.90
26691;DHT22;14307;51.718;8.938;2022-08-21T16:36:15;23.80;99.90
26691;DHT22;14307;51.718;8.938;2022-08-21T16:38:44;23.60;99.90
26691;DHT22;14307;51.718;8.938;2022-08-21T16:41:13;23.50;99.90
26691;DHT22;14307;51.718;8.938;2022-08-21T16:43:42;23.40;99.90
26691;DHT22;14307;51.718;8.938;2022-08-21T16:46:12;23.20;99.90
26691;DHT22;14307;51.718;8.938;2022-08-21T16:48:40;23.20;99.90
26691;DHT22;14307;51.718;8.938;2022-08-21T16:51:07;23.10;99.90
26691;DHT22;14307;51.718;8.938;2022-08-21T16:53:34;23.10;99.90
26691;DHT22;14307;51.718;8.938;2022-08-21T16:56:01;23.10;99.90
26691;DHT22;14307;51.718;8.938;2022-08-21T16:58:33;23.00;99.90
26691;DHT22;14307;51.718;8.938;2022-08-21T17:01:04;23.00;99.90
26691;DHT22;14307;51.718;8.938;2022-08-21T17:03:36;22.90;99.90